createdAt,value
2023-01-29T00:00:13.878Z,-1.10
2023-01-29T00:02:40.932Z,-1.10
2023-01-29T00:05:26.080Z,-1.00
2023-01-29T00:07:53.734Z,-1.00
2023-01-29T00:10:22.033Z,-1.00
2023-01-29T00:12:49.017Z,-1.10
2023-01-29T00:15:16.128Z,-1.10
2023-01-29T00:17:43.038Z,-1.10
2023-01-29T00:20:10.749Z,-1.10
2023-01-29T00:22:37.704Z,-1.10
2023-01-29T00:25:04.991Z,-1.00
2023-01-29T00:27:31.950Z,-0.90
2023-01-29T00:30:13.043Z,-1.00
2023-01-29T00:32:40.868Z,-1.10
2023-01-29T00:35:08.788Z,-1.10
2023-01-29T00:37:35.815Z,-1.10
2023-01-29T00:40:02.774Z,-1.00
2023-01-29T00:42:48.304Z,-1.10
2023-01-29T00:45:15.283Z,-1.10
2023-01-29T00:47:42.342Z,-1.10
2023-01-29T00:50:11.902Z,-1.10
2023-01-29T00:52:41.013Z,-1.10
2023-01-29T00:55:09.696Z,-1.10
2023-01-29T00:57:37.325Z,-1.20
2023-01-29T01:00:07.283Z,-1.10
2023-01-29T01:02:53.078Z,-1.20
2023-01-29T01:05:20.565Z,-1.10
2023-01-29T01:07:49.536Z,-1.10
2023-01-29T01:10:22.470Z,-1.10
2023-01-29T01:12:56.348Z,-1.10
2023-01-29T01:15:25.295Z,-1.10
2023-01-29T01:17:54.361Z,-1.20
2023-01-29T01:20:21.619Z,-1.20
2023-01-29T01:22:49.392Z,-1.20
2023-01-29T01:25:16.456Z,-1.10
2023-01-29T01:27:43.415Z,-1.20
2023-01-29T01:30:15.805Z,-1.20
2023-01-29T01:32:43.104Z,-1.20
2023-01-29T01:35:11.433Z,-1.20
2023-01-29T01:37:38.827Z,-1.20
2023-01-29T01:40:12.905Z,-1.20
2023-01-29T01:42:40.360Z,-1.10
2023-01-29T01:45:20.196Z,-1.20
2023-01-29T01:47:51.528Z,-1.10
2023-01-29T01:50:43.518Z,-1.10
2023-01-29T01:53:16.518Z,-1.20
2023-01-29T01:55:49.373Z,-1.10
2023-01-29T01:58:25.721Z,-1.20
2023-01-29T02:00:53.146Z,-1.20
2023-01-29T02:03:40.874Z,-1.20
2023-01-29T02:06:27.439Z,-1.10
2023-01-29T02:09:29.311Z,-1.10
2023-01-29T02:11:56.650Z,-1.10
2023-01-29T02:14:23.689Z,-1.10
2023-01-29T02:16:50.702Z,-1.10
2023-01-29T02:19:34.473Z,-1.00
2023-01-29T02:22:17.298Z,-1.00
2023-01-29T02:25:12.083Z,-1.00
2023-01-29T02:27:57.696Z,-1.10
2023-01-29T02:30:40.519Z,-1.00
2023-01-29T02:33:22.346Z,-1.10
2023-01-29T02:36:30.381Z,-1.10
2023-01-29T02:39:19.233Z,-1.10
2023-01-29T02:42:04.879Z,-1.10
2023-01-29T02:44:41.911Z,-1.10
2023-01-29T02:47:42.811Z,-1.00
2023-01-29T02:50:18.268Z,-1.00
2023-01-29T02:53:06.529Z,-1.00
2023-01-29T02:55:40.269Z,-1.10
2023-01-29T02:58:38.286Z,-1.20
2023-01-29T03:01:12.651Z,-1.10
2023-01-29T03:03:47.859Z,-1.10
2023-01-29T03:06:24.362Z,-1.10
2023-01-29T03:08:58.844Z,-1.10
2023-01-29T03:11:32.314Z,-1.10
2023-01-29T03:14:25.716Z,-1.10
2023-01-29T03:16:53.822Z,-1.00
2023-01-29T03:19:24.059Z,-1.10
2023-01-29T03:21:59.312Z,-1.10
2023-01-29T03:25:07.965Z,-1.00
2023-01-29T03:28:13.355Z,-1.10
2023-01-29T03:31:10.579Z,-1.00
2023-01-29T03:33:57.822Z,-1.00
2023-01-29T03:36:45.417Z,-1.00
2023-01-29T03:39:14.649Z,-1.00
2023-01-29T03:41:47.815Z,-1.00
2023-01-29T03:44:16.281Z,-1.00
2023-01-29T03:46:56.646Z,-1.00
2023-01-29T03:49:26.287Z,-1.00
2023-01-29T03:52:04.058Z,-1.00
2023-01-29T03:54:50.347Z,-1.00
2023-01-29T03:57:31.957Z,-1.00
2023-01-29T04:00:09.656Z,-1.00
2023-01-29T04:02:55.803Z,-1.00
2023-01-29T04:05:28.156Z,-0.90
2023-01-29T04:08:01.728Z,-0.90
2023-01-29T04:10:30.210Z,-0.90
2023-01-29T04:13:13.818Z,-0.90
2023-01-29T04:15:53.357Z,-1.00
2023-01-29T04:18:20.251Z,-1.00
2023-01-29T04:20:47.509Z,-0.90
2023-01-29T04:23:25.557Z,-0.90
2023-01-29T04:26:29.944Z,-0.80
2023-01-29T04:29:05.887Z,-0.90
2023-01-29T04:31:43.334Z,-0.90
2023-01-29T04:34:24.571Z,-0.90
2023-01-29T04:37:17.736Z,-0.90
2023-01-29T04:40:04.448Z,-0.90
2023-01-29T04:42:49.616Z,-0.90
2023-01-29T04:45:16.422Z,-0.90
2023-01-29T04:48:03.624Z,-0.90
2023-01-29T04:50:51.461Z,-0.90
2023-01-29T04:53:27.890Z,-0.90
2023-01-29T04:56:34.529Z,-0.90
2023-01-29T04:59:15.898Z,-0.80
2023-01-29T05:01:44.067Z,-0.90
2023-01-29T05:04:15.354Z,-0.90
2023-01-29T05:06:43.568Z,-0.90
2023-01-29T05:09:12.617Z,-0.90
2023-01-29T05:11:39.735Z,-0.90
2023-01-29T05:14:09.001Z,-1.00
2023-01-29T05:16:42.777Z,-1.00
2023-01-29T05:19:13.920Z,-1.00
2023-01-29T05:21:42.581Z,-0.90
2023-01-29T05:24:16.322Z,-0.90
2023-01-29T05:27:03.832Z,-0.90
2023-01-29T05:29:30.804Z,-0.90
2023-01-29T05:31:57.905Z,-0.90
2023-01-29T05:34:25.055Z,-0.90
2023-01-29T05:36:52.087Z,-0.90
2023-01-29T05:39:19.241Z,-0.80
2023-01-29T05:41:46.169Z,-0.80
2023-01-29T05:44:13.185Z,-0.80
2023-01-29T05:46:40.318Z,-0.80
2023-01-29T05:49:07.288Z,-0.70
2023-01-29T05:51:34.351Z,-0.80
2023-01-29T05:54:01.513Z,-0.70
2023-01-29T05:56:28.495Z,-0.70
2023-01-29T05:58:55.782Z,-0.60
2023-01-29T06:01:25.591Z,-0.50
2023-01-29T06:03:52.500Z,-0.50
2023-01-29T06:06:19.450Z,-0.50
2023-01-29T06:08:46.704Z,-0.50
2023-01-29T06:11:15.201Z,-0.50
2023-01-29T06:13:42.468Z,-0.50
2023-01-29T06:16:10.813Z,-0.50
2023-01-29T06:18:38.051Z,-0.40
2023-01-29T06:21:07.095Z,-0.40
2023-01-29T06:23:33.994Z,-0.40
2023-01-29T06:26:09.203Z,-0.40
2023-01-29T06:28:36.342Z,-0.40
2023-01-29T06:31:23.851Z,-0.50
2023-01-29T06:33:51.811Z,-0.40
2023-01-29T06:36:18.714Z,-0.30
2023-01-29T06:38:45.745Z,-0.30
2023-01-29T06:41:16.091Z,-0.30
2023-01-29T06:43:45.149Z,-0.30
2023-01-29T06:46:12.154Z,-0.30
2023-01-29T06:48:39.126Z,-0.20
2023-01-29T06:51:08.621Z,-0.20
2023-01-29T06:53:37.089Z,-0.20
2023-01-29T06:56:06.165Z,-0.20
2023-01-29T06:58:33.546Z,-0.20
2023-01-29T07:01:08.617Z,-0.10
2023-01-29T07:03:35.765Z,-0.10
2023-01-29T07:06:02.818Z,-0.10
2023-01-29T07:08:29.844Z,-0.10
2023-01-29T07:11:01.143Z,-0.10
2023-01-29T07:13:28.787Z,0.00
2023-01-29T07:15:59.889Z,0.00
2023-01-29T07:18:27.790Z,0.10
2023-01-29T07:20:55.244Z,0.10
2023-01-29T07:23:22.419Z,0.20
2023-01-29T07:25:50.223Z,0.20
2023-01-29T07:28:18.507Z,0.20
2023-01-29T07:30:45.429Z,0.20
2023-01-29T07:33:12.499Z,0.30
2023-01-29T07:35:41.833Z,0.20
2023-01-29T07:38:10.565Z,0.20
2023-01-29T07:40:37.808Z,0.30
2023-01-29T07:43:07.755Z,0.40
2023-01-29T07:45:35.677Z,0.40
2023-01-29T07:48:05.171Z,0.40
2023-01-29T07:50:34.272Z,0.50
2023-01-29T07:53:02.078Z,0.50
2023-01-29T07:55:29.264Z,0.50
2023-01-29T07:58:01.633Z,0.60
2023-01-29T08:00:32.628Z,0.60
2023-01-29T08:03:07.473Z,0.80
2023-01-29T08:05:35.411Z,0.90
2023-01-29T08:08:06.888Z,1.00
2023-01-29T08:10:38.354Z,1.10
2023-01-29T08:15:34.029Z,1.20
2023-01-29T08:18:04.559Z,1.30
2023-01-29T08:20:31.534Z,1.20
2023-01-29T08:23:03.726Z,1.30
2023-01-29T08:25:31.070Z,1.20
2023-01-29T08:27:59.007Z,1.30
2023-01-29T08:30:31.291Z,1.60
2023-01-29T08:32:58.414Z,1.80
2023-01-29T08:35:26.117Z,1.80
2023-01-29T08:37:59.566Z,1.80
2023-01-29T08:40:28.797Z,1.90
2023-01-29T08:43:04.532Z,1.90
2023-01-29T08:45:37.548Z,2.00
2023-01-29T08:48:04.844Z,2.10
2023-01-29T08:50:32.479Z,1.90
2023-01-29T08:53:00.847Z,2.00
2023-01-29T08:55:28.855Z,2.10
2023-01-29T08:57:57.450Z,2.10
2023-01-29T09:00:24.898Z,2.00
2023-01-29T09:02:52.801Z,2.00
2023-01-29T09:05:20.078Z,1.90
2023-01-29T09:07:47.722Z,1.80
2023-01-29T09:10:17.095Z,1.90
2023-01-29T09:12:43.968Z,1.90
2023-01-29T09:15:11.458Z,1.80
2023-01-29T09:17:41.001Z,1.90
2023-01-29T09:20:09.547Z,1.80
2023-01-29T09:22:37.860Z,1.90
2023-01-29T09:25:05.459Z,1.90
2023-01-29T09:27:32.838Z,2.00
2023-01-29T09:30:01.292Z,2.00
2023-01-29T09:32:52.682Z,2.00
2023-01-29T09:35:18.638Z,1.80
2023-01-29T09:37:50.067Z,2.00
2023-01-29T09:40:27.027Z,2.10
2023-01-29T09:43:08.635Z,2.10
2023-01-29T09:45:41.610Z,2.20
2023-01-29T09:48:13.669Z,2.10
2023-01-29T09:50:46.939Z,2.20
2023-01-29T09:53:57.152Z,2.30
2023-01-29T09:56:29.026Z,2.20
2023-01-29T09:59:01.671Z,2.30
2023-01-29T10:02:01.077Z,2.30
2023-01-29T10:05:25.739Z,2.20
2023-01-29T10:08:15.401Z,2.20
2023-01-29T10:11:08.904Z,2.20
2023-01-29T10:14:00.977Z,2.20
2023-01-29T10:16:45.437Z,2.20
2023-01-29T10:19:39.603Z,2.10
2023-01-29T10:22:21.721Z,2.10
2023-01-29T10:24:48.617Z,2.00
2023-01-29T10:27:17.716Z,2.10
2023-01-29T10:29:47.401Z,2.10
2023-01-29T10:32:20.867Z,2.10
2023-01-29T10:35:06.770Z,2.00
2023-01-29T10:37:44.201Z,2.10
2023-01-29T10:40:37.283Z,2.20
2023-01-29T10:43:39.097Z,2.20
2023-01-29T10:46:17.763Z,2.20
2023-01-29T10:49:25.492Z,2.20
2023-01-29T10:52:01.339Z,2.00
2023-01-29T10:54:31.380Z,2.00
2023-01-29T10:57:10.329Z,2.00
2023-01-29T10:59:47.626Z,1.90
2023-01-29T11:02:18.342Z,1.80
2023-01-29T11:04:46.018Z,1.80
2023-01-29T11:07:16.213Z,1.80
2023-01-29T11:10:03.188Z,1.70
2023-01-29T11:12:32.419Z,1.80
2023-01-29T11:15:24.775Z,1.70
2023-01-29T11:18:17.684Z,1.70
2023-01-29T11:20:46.527Z,1.70
2023-01-29T11:23:29.701Z,1.80
2023-01-29T11:26:00.147Z,1.80
2023-01-29T11:28:42.574Z,1.80
2023-01-29T11:31:23.094Z,1.80
2023-01-29T11:33:54.097Z,1.80
2023-01-29T11:36:34.239Z,1.80
2023-01-29T11:39:21.733Z,1.90
2023-01-29T11:42:00.546Z,1.80
2023-01-29T11:44:32.147Z,1.80
2023-01-29T11:47:21.602Z,1.80
2023-01-29T11:49:58.055Z,1.90
2023-01-29T11:52:39.248Z,2.00
2023-01-29T11:55:19.495Z,2.00
2023-01-29T11:58:01.235Z,2.10
2023-01-29T12:00:32.241Z,2.10
2023-01-29T12:03:13.484Z,2.10
2023-01-29T12:05:42.330Z,2.00
2023-01-29T12:08:19.696Z,2.00
2023-01-29T12:10:49.715Z,2.10
2023-01-29T12:13:27.597Z,2.00
2023-01-29T12:16:23.690Z,1.90
2023-01-29T12:19:00.792Z,1.80
2023-01-29T12:21:39.957Z,1.90
2023-01-29T12:24:34.400Z,2.00
2023-01-29T12:27:17.455Z,2.00
2023-01-29T12:29:53.074Z,2.10
2023-01-29T12:32:44.663Z,2.00
2023-01-29T12:35:22.709Z,2.00
2023-01-29T12:38:08.250Z,2.00
2023-01-29T12:40:41.670Z,2.10
2023-01-29T12:43:16.182Z,2.10
2023-01-29T12:45:47.179Z,2.10
2023-01-29T12:48:25.128Z,2.00
2023-01-29T12:50:55.815Z,2.00
2023-01-29T12:53:31.950Z,1.90
2023-01-29T12:56:26.753Z,1.90
2023-01-29T12:58:55.917Z,2.00
2023-01-29T13:01:34.556Z,1.90
2023-01-29T13:04:11.764Z,2.00
2023-01-29T13:06:46.738Z,2.00
2023-01-29T13:09:19.040Z,2.00
2023-01-29T13:11:49.908Z,2.00
2023-01-29T13:14:20.263Z,2.00
2023-01-29T13:16:53.209Z,2.00
2023-01-29T13:19:32.740Z,1.90
2023-01-29T13:22:02.592Z,2.00
2023-01-29T13:24:47.890Z,1.90
2023-01-29T13:27:32.400Z,1.90
2023-01-29T13:30:00.112Z,1.90
2023-01-29T13:32:32.873Z,1.90
2023-01-29T13:35:04.083Z,2.00
2023-01-29T13:37:38.104Z,2.00
2023-01-29T13:40:08.280Z,2.00
2023-01-29T13:42:47.223Z,2.00
2023-01-29T13:45:41.839Z,2.00
2023-01-29T13:48:28.703Z,2.00
2023-01-29T13:50:57.666Z,2.00
2023-01-29T13:53:36.700Z,2.00
2023-01-29T13:56:34.851Z,2.00
2023-01-29T13:59:03.832Z,2.00
2023-01-29T14:01:49.265Z,1.90
2023-01-29T14:04:19.040Z,1.90
2023-01-29T14:06:52.314Z,1.90
2023-01-29T14:10:14.352Z,1.80
2023-01-29T14:12:43.370Z,1.80
2023-01-29T14:15:26.364Z,1.80
2023-01-29T14:18:11.310Z,1.80
2023-01-29T14:20:46.246Z,1.80
2023-01-29T14:23:40.471Z,1.80
2023-01-29T14:26:33.437Z,1.70
2023-01-29T14:29:14.424Z,1.70
2023-01-29T14:31:54.068Z,1.80
2023-01-29T14:34:33.963Z,1.80
2023-01-29T14:37:26.018Z,1.80
2023-01-29T14:39:57.791Z,1.80
2023-01-29T14:42:34.816Z,1.80
2023-01-29T14:45:38.150Z,1.80
2023-01-29T14:48:10.964Z,1.70
2023-01-29T14:50:42.611Z,1.80
2023-01-29T14:53:31.835Z,1.80
2023-01-29T14:56:10.779Z,1.80
2023-01-29T14:58:44.801Z,1.80
2023-01-29T15:01:31.078Z,1.90
2023-01-29T15:04:14.294Z,1.80
2023-01-29T15:06:46.491Z,1.80
2023-01-29T15:09:49.842Z,1.80
2023-01-29T15:12:25.634Z,1.70
2023-01-29T15:14:59.609Z,1.70
2023-01-29T15:17:37.176Z,1.70
2023-01-29T15:20:36.954Z,1.70
2023-01-29T15:23:24.204Z,1.70
2023-01-29T15:25:56.354Z,1.70
2023-01-29T15:28:23.825Z,1.70
2023-01-29T15:30:59.361Z,1.70
2023-01-29T15:33:29.941Z,1.80
2023-01-29T15:36:08.971Z,1.70
2023-01-29T15:38:38.214Z,1.80
2023-01-29T15:41:22.488Z,1.80
2023-01-29T15:44:01.192Z,1.80
2023-01-29T15:46:36.621Z,1.80
2023-01-29T15:49:09.711Z,1.80
2023-01-29T15:51:37.205Z,1.80
2023-01-29T15:54:10.674Z,1.80
2023-01-29T15:56:43.461Z,1.90
2023-01-29T15:59:20.318Z,1.90
2023-01-29T16:01:48.205Z,1.90
2023-01-29T16:04:26.992Z,1.90
2023-01-29T16:06:55.545Z,1.80
2023-01-29T16:09:26.653Z,1.80
2023-01-29T16:11:58.566Z,1.80
2023-01-29T16:14:26.892Z,1.80
2023-01-29T16:16:54.361Z,1.80
2023-01-29T16:19:29.629Z,1.80
2023-01-29T16:21:56.462Z,1.80
2023-01-29T16:24:25.474Z,1.80
2023-01-29T16:27:01.202Z,1.80
2023-01-29T16:29:33.684Z,1.70
2023-01-29T16:32:05.534Z,1.70
2023-01-29T16:34:35.004Z,1.80
2023-01-29T16:37:05.428Z,1.70
2023-01-29T16:39:44.149Z,1.70
2023-01-29T16:42:12.605Z,1.70
2023-01-29T16:44:45.351Z,1.70
2023-01-29T16:47:14.718Z,1.70
2023-01-29T16:49:49.453Z,1.70
2023-01-29T16:52:31.637Z,1.70
2023-01-29T16:55:12.577Z,1.80
2023-01-29T16:57:43.447Z,1.80
2023-01-29T17:00:32.400Z,1.70
2023-01-29T17:03:08.048Z,1.70
2023-01-29T17:05:37.149Z,1.80
2023-01-29T17:08:06.687Z,1.80
2023-01-29T17:10:36.029Z,1.80
2023-01-29T17:13:07.366Z,1.70
2023-01-29T17:15:46.127Z,1.80
2023-01-29T17:18:22.698Z,1.80
2023-01-29T17:20:50.614Z,1.80
2023-01-29T17:23:19.790Z,1.80
2023-01-29T17:25:48.086Z,1.80
2023-01-29T17:28:18.109Z,1.80
2023-01-29T17:31:00.288Z,1.90
2023-01-29T17:33:32.906Z,1.80
2023-01-29T17:36:02.064Z,1.80
2023-01-29T17:38:30.107Z,1.90
2023-01-29T17:41:12.080Z,1.80
2023-01-29T17:43:38.979Z,1.80
2023-01-29T17:46:11.889Z,1.80
2023-01-29T17:48:42.087Z,1.80
2023-01-29T17:51:15.475Z,1.80
2023-01-29T17:53:45.842Z,1.80
2023-01-29T17:56:18.505Z,1.80
2023-01-29T17:58:45.594Z,1.80
2023-01-29T18:01:13.168Z,1.80
2023-01-29T18:03:40.301Z,1.70
2023-01-29T18:06:09.882Z,1.70
2023-01-29T18:08:38.863Z,1.70
2023-01-29T18:11:06.414Z,1.80
2023-01-29T18:13:36.318Z,1.80
2023-01-29T18:16:03.272Z,1.80
2023-01-29T18:18:31.025Z,1.70
2023-01-29T18:20:57.963Z,1.80
2023-01-29T18:23:27.036Z,1.90
2023-01-29T18:25:58.117Z,1.90
2023-01-29T18:28:25.462Z,1.90
2023-01-29T18:30:54.111Z,1.90
2023-01-29T18:33:21.324Z,1.90
2023-01-29T18:35:48.806Z,1.90
2023-01-29T18:38:16.828Z,1.80
2023-01-29T18:40:43.964Z,1.80
2023-01-29T18:43:10.876Z,1.80
2023-01-29T18:45:37.874Z,1.80
2023-01-29T18:48:05.384Z,1.80
2023-01-29T18:50:32.560Z,1.80
2023-01-29T18:52:59.594Z,1.70
2023-01-29T18:55:27.151Z,1.80
2023-01-29T18:58:27.362Z,1.80
2023-01-29T19:00:44.019Z,1.70
2023-01-29T19:03:11.303Z,1.80
2023-01-29T19:05:38.303Z,1.80
2023-01-29T19:08:05.975Z,1.80
2023-01-29T19:10:33.293Z,1.90
2023-01-29T19:13:00.346Z,1.90
2023-01-29T19:15:27.297Z,1.90
2023-01-29T19:17:54.629Z,1.90
2023-01-29T19:20:21.588Z,1.90
2023-01-29T19:22:48.752Z,1.90
2023-01-29T19:25:16.636Z,1.90
2023-01-29T19:27:44.130Z,1.90
2023-01-29T19:30:13.852Z,1.90
2023-01-29T19:32:41.214Z,1.90
2023-01-29T19:35:08.788Z,2.00
2023-01-29T19:37:36.858Z,2.00
2023-01-29T19:40:04.289Z,2.00
2023-01-29T19:42:31.580Z,2.00
2023-01-29T19:45:00.170Z,2.10
2023-01-29T19:47:28.057Z,2.10
2023-01-29T19:49:56.513Z,2.00
2023-01-29T19:52:50.269Z,2.00
2023-01-29T19:55:19.205Z,2.00
2023-01-29T19:57:46.618Z,2.00
2023-01-29T20:00:17.463Z,2.00
2023-01-29T20:02:44.792Z,2.00
2023-01-29T20:05:13.182Z,2.00
2023-01-29T20:07:43.031Z,2.00
2023-01-29T20:10:18.272Z,2.00
2023-01-29T20:12:47.795Z,2.00
2023-01-29T20:15:15.158Z,2.00
2023-01-29T20:17:43.695Z,2.00
2023-01-29T20:20:11.244Z,2.10
2023-01-29T20:22:40.039Z,2.00
2023-01-29T20:25:11.653Z,1.90
2023-01-29T20:27:39.001Z,2.00
2023-01-29T20:30:08.044Z,1.90
2023-01-29T20:32:38.068Z,2.00
2023-01-29T20:35:07.317Z,2.00
2023-01-29T20:37:34.254Z,2.00
2023-01-29T20:40:01.167Z,2.00
2023-01-29T20:42:28.095Z,2.00
2023-01-29T20:44:55.203Z,2.00
2023-01-29T20:47:22.057Z,2.00
2023-01-29T20:49:49.158Z,2.00
2023-01-29T20:52:16.164Z,2.00
2023-01-29T20:54:43.030Z,2.10
2023-01-29T20:57:10.533Z,2.00
2023-01-29T20:59:38.254Z,2.10
2023-01-29T21:02:06.406Z,2.10
2023-01-29T21:04:33.892Z,2.10
2023-01-29T21:07:03.069Z,2.10
2023-01-29T21:09:30.024Z,2.10
2023-01-29T21:11:56.902Z,2.20
2023-01-29T21:14:23.915Z,2.20
2023-01-29T21:16:50.890Z,2.20
2023-01-29T21:19:17.772Z,2.20
2023-01-29T21:21:44.709Z,2.20
2023-01-29T21:24:13.045Z,2.20
2023-01-29T21:26:40.152Z,2.20
2023-01-29T21:29:07.432Z,2.20
2023-01-29T21:31:34.441Z,2.20
2023-01-29T21:34:01.795Z,2.20
2023-01-29T21:36:29.785Z,2.30
2023-01-29T21:38:56.704Z,2.30
2023-01-29T21:41:58.958Z,2.30
2023-01-29T21:44:25.976Z,2.30
2023-01-29T21:46:52.814Z,2.30
2023-01-29T21:49:19.705Z,2.20
2023-01-29T21:51:46.694Z,2.20
2023-01-29T21:54:13.771Z,2.20
2023-01-29T21:56:41.379Z,2.20
2023-01-29T21:59:08.733Z,2.20
2023-01-29T22:01:37.536Z,2.30
2023-01-29T22:04:07.791Z,2.20
2023-01-29T22:06:37.747Z,2.20
2023-01-29T22:09:04.543Z,2.20
2023-01-29T22:11:31.637Z,2.10
2023-01-29T22:13:58.599Z,2.10
2023-01-29T22:16:25.477Z,2.20
2023-01-29T22:18:52.396Z,2.20
2023-01-29T22:21:19.280Z,2.20
2023-01-29T22:23:49.472Z,2.30
2023-01-29T22:26:17.020Z,2.20
2023-01-29T22:28:44.249Z,2.10
2023-01-29T22:31:11.382Z,2.20
2023-01-29T22:33:38.467Z,2.20
2023-01-29T22:36:05.783Z,2.30
2023-01-29T22:38:32.749Z,2.30
2023-01-29T22:41:01.001Z,2.30
2023-01-29T22:43:29.392Z,2.30
2023-01-29T22:45:59.119Z,2.30
2023-01-29T22:48:26.969Z,2.30
2023-01-29T22:51:10.801Z,2.30
2023-01-29T22:53:43.231Z,2.30
2023-01-29T22:56:11.476Z,2.30
2023-01-29T22:58:38.530Z,2.40
2023-01-29T23:01:07.136Z,2.40
2023-01-29T23:03:34.878Z,2.40
2023-01-29T23:06:02.555Z,2.30
2023-01-29T23:08:29.538Z,2.40
2023-01-29T23:11:14.058Z,2.40
2023-01-29T23:13:45.933Z,2.40
2023-01-29T23:16:14.444Z,2.40
2023-01-29T23:18:42.541Z,2.40
2023-01-29T23:21:09.853Z,2.30
2023-01-29T23:23:37.718Z,2.40
2023-01-29T23:26:25.686Z,2.40
2023-01-29T23:28:52.740Z,2.40
2023-01-29T23:31:19.762Z,2.40
2023-01-29T23:33:46.751Z,2.50
2023-01-29T23:36:13.656Z,2.50
2023-01-29T23:38:40.655Z,2.50
2023-01-29T23:41:07.573Z,2.50
2023-01-29T23:43:34.763Z,2.50
2023-01-29T23:46:01.931Z,2.50
2023-01-29T23:48:28.902Z,2.50
2023-01-29T23:50:55.912Z,2.40
2023-01-29T23:53:23.120Z,2.40
2023-01-29T23:56:04.442Z,2.40
2023-01-29T23:58:32.883Z,2.40
